AirNav   Everest Fuels
 
 919 users online  

0MU1 Sunderland Airport
Avilla, Missouri, USA

GOING TO AVILLA?


FAA INFORMATION EFFECTIVE 15 JULY 2021

Location

FAA Identifier: 0MU1
Lat/Long: 37-14-48.0000N 094-10-26.0000W
37-14.800000N 094-10.433333W
37.2466667,-94.1738889
(estimated)
Elevation: 1027 ft. / 313 m (estimated)
Variation: 05E (1990)
From city: 3 miles NW of AVILLA, MO
Time zone: UTC -5 (UTC -6 during Standard Time)
Zip code: 64755

Airport Operations

Airport use: Private use. Permission required prior to landing
Activation date: 11/1992
Control tower: no
ARTCC: KANSAS CITY CENTER
FSS: COLUMBIA FLIGHT SERVICE STATION
Attendance: UNATNDD
Wind indicator: yes
Segmented circle: no

Airport Communications

WX ASOS at JLN (17 nm W): PHONE 417-623-8892

Nearby radio navigation aids

VOR radial/distance  VOR name  Freq  Var
EOSr020/27.3NEOSHO VOR/DME117.3007E

Airport Services

Runway Information

Runway 9/27

Dimensions: 2000 x 75 ft. / 610 x 23 m
Surface: turf
RUNWAY 9  RUNWAY 27
Traffic pattern: leftleft
Obstructions: 4 ft. fence4 ft. fence

Airport Ownership and Management from official FAA records

Ownership: Privately-owned
Owner: GLENN R. SUNDERLAND
13541 CO. RD. 60
CARTHAGE, MO 64836
Phone 417-246-5515
Manager: GLENN R. SUNDERLAND
13541 CO. RD. 60
CARTHAGE, MO 64836
Phone 417-246-5515

Additional Remarks

FOR CD CTC KANSAS CITY ARTCC AT 913-254-8508.

Instrument Procedures

There are no published instrument procedures at 0MU1.

Some nearby airports with instrument procedures:

KLLU - Lamar Municipal Airport (16 nm NW)
KJLN - Joplin Regional Airport (17 nm W)
KHFJ - Monett Regional Airport (22 nm S)
KEOS - Neosho Hugh Robinson Airport (28 nm S)
2H2 - Jerry Sumners Sr. Aurora Municipal Airport (29 nm SE)
 
Loc | Ops | Rwys | IFR | FBO | Links
Com | Nav | Svcs | Stats | Notes
Area around 0MU1 (Sunderland Airport)
 
Road maps at: MapQuest Bing Google
 
Aerial photo
No photo
 
Sectional chart

 
Airport distance calculator
Flying to Sunderland Airport? Find the distance to fly.

From to 0MU1

Sunrise and sunset
Times for 24-Jul-2021
 Local
(UTC-5)
 Zulu
(UTC)
Morning civil twilight05:4610:46
Sunrise06:1611:16
Sunset20:3001:30
Evening civil twilight21:0002:00

Current date and time
Zulu (UTC)  25-Jul-2021 02:49:38
Local (UTC-5)  24-Jul-2021 21:49:38
 
METAR
KJLN 
17nm W 
250153Z 00000KT 10SM CLR 28/23 A2998 RMK AO2 SLP140 T02780233
KHFJ 
22nm S 
250235Z AUTO 00000KT 10SM CLR 26/23 A3002 RMK AO2
KPTS 
29nm NW 
250235Z AUTO 17003KT 10SM CLR 28/24 A2997 RMK AO2 T02760244
TAF
KJLN 
17nm W 
241720Z 2418/2518 23007KT P6SM FEW250 FM250300 16004KT P6SM SKC FM251500 21006KT P6SM SCT250
NOTAMs
Click for the latest NOTAMs
NOTAMs are issued by the DoD/FAA and will open in a separate window not controlled by AirNav.

 

 
 

Would you like to see your business listed on this page?

 If your business provides an interesting product or service to pilots, flight crews, aircraft, or users of the Sunderland Airport, you should consider listing it here.  To start the listing process, click on the button below
 
Add a business
 

Other Pages about Sunderland Airport

Update a link
 
Copyright © AirNav, LLC. All rights reserved. Privacy Policy  Contact